Time;durP1;ratioP1;P1;durP2;ratioP2;P2;SDS_P1;SDS_P2;PMS_P1;PMS_P2;Temp;Humidity;BMP_temperature;BMP_pressure;BME280_temperature;BME280_humidity;BME280_pressure;Samples;Min_cycle;Max_cycle;Signal;HPM_P1;HPM_P2
2022/08/22 00:01:17;;;;;;;11.43;5.10;;;;;;;17.69;100.00;101801.50;7387503;19;20010;-77
2022/08/22 00:03:57;;;;;;;10.95;4.57;;;;;;;17.68;100.00;101792.66;7387066;19;20039;-77
2022/08/22 00:06:38;;;;;;;10.48;4.82;;;;;;;17.67;100.00;101798.00;7383814;19;20021;-78
2022/08/22 00:09:28;;;;;;;10.32;4.57;;;;;;;17.66;100.00;101796.22;7382702;19;20101;-77
2022/08/22 00:12:14;;;;;;;9.50;4.55;;;;;;;17.67;100.00;101793.56;7384109;19;20015;-76
2022/08/22 00:14:51;;;;;;;17.00;4.78;;;;;;;17.64;100.00;101799.72;7383019;19;20010;-78
2022/08/22 00:17:37;;;;;;;11.68;5.20;;;;;;;17.63;100.00;101794.41;7383497;19;20042;-78
2022/08/22 00:20:14;;;;;;;10.85;4.53;;;;;;;17.65;100.00;101797.97;7387927;19;20280;-77
2022/08/22 00:22:50;;;;;;;10.75;4.97;;;;;;;17.67;100.00;101798.00;7388198;19;20359;-76
2022/08/22 00:25:51;;;;;;;13.52;5.18;;;;;;;17.63;100.00;101791.78;7385489;19;20027;-76
2022/08/22 00:28:31;;;;;;;13.23;4.65;;;;;;;17.63;100.00;101792.66;7381799;19;20018;-76
2022/08/22 00:31:19;;;;;;;11.93;4.97;;;;;;;17.64;100.00;101793.53;7384359;19;20370;-77
2022/08/22 00:33:54;;;;;;;10.23;4.15;;;;;;;17.65;100.00;101790.00;7385555;19;20239;-76
2022/08/22 00:36:30;;;;;;;9.55;4.20;;;;;;;17.65;100.00;101795.31;7386988;19;20014;-77
2022/08/22 00:39:09;;;;;;;10.98;4.57;;;;;;;17.64;100.00;101799.72;7392213;19;20018;-76
2022/08/22 00:42:04;;;;;;;10.90;5.03;;;;;;;17.66;100.00;101802.41;7393410;19;20429;-77
2022/08/22 00:45:11;;;;;;;11.80;6.03;;;;;;;17.61;100.00;101790.88;7392369;19;20003;-76
2022/08/22 00:48:07;;;;;;;11.30;4.63;;;;;;;17.62;100.00;101790.88;7395308;19;19999;-77
2022/08/22 00:51:10;;;;;;;13.75;5.03;;;;;;;17.61;100.00;101790.88;7390646;19;20018;-76
2022/08/22 00:53:54;;;;;;;16.65;5.28;;;;;;;17.64;100.00;101799.72;7392682;19;20011;-77
2022/08/22 00:56:39;;;;;;;;;;;;;;;17.62;100.00;101790.00;7393920;19;20014;-76
2022/08/22 00:59:48;;;;;;;11.07;4.85;;;;;;;17.62;100.00;101790.00;7389193;19;20589;-77
2022/08/22 01:02:39;;;;;;;10.48;4.40;;;;;;;17.60;100.00;101795.31;7383909;19;20030;-78
2022/08/22 01:05:24;;;;;;;11.85;4.82;;;;;;;17.61;100.00;101794.41;7382965;19;20050;-77
2022/08/22 01:08:13;;;;;;;13.32;6.32;;;;;;;17.59;100.00;101788.22;7381991;19;20014;-77
2022/08/22 01:11:00;;;;;;;15.38;4.85;;;;;;;17.58;100.00;101785.59;7383193;19;20332;-77
2022/08/22 01:14:16;;;;;;;13.27;4.47;;;;;;;17.58;100.00;101782.94;7381095;19;20015;-77
2022/08/22 01:17:04;;;;;;;14.20;4.80;;;;;;;17.57;100.00;101779.41;7379934;19;20490;-79
2022/08/22 01:20:25;;;;;;;11.20;5.07;;;;;;;17.55;100.00;101794.44;7384878;19;20043;-78
2022/08/22 01:23:27;;;;;;;11.18;4.93;;;;;;;17.56;100.00;101795.31;7380825;19;20010;-77
2022/08/22 01:26:36;;;;;;;12.18;4.70;;;;;;;17.55;100.00;101786.47;7379817;19;20335;-77
2022/08/22 01:29:37;;;;;;;15.32;5.78;;;;;;;17.54;100.00;101792.66;7379924;19;20043;-76
2022/08/22 01:32:37;;;;;;;13.38;4.68;;;;;;;17.53;100.00;101793.53;7378831;19;20018;-78
2022/08/22 01:35:45;;;;;;;10.05;4.57;;;;;;;17.50;100.00;101790.00;7379050;19;20014;-76
2022/08/22 01:38:52;;;;;;;12.23;5.03;;;;;;;17.53;100.00;101800.63;7380229;19;20027;-77
2022/08/22 01:41:42;;;;;;;14.18;5.00;;;;;;;17.52;100.00;101799.72;7379710;19;20056;-78
2022/08/22 01:44:40;;;;;;;9.75;4.45;;;;;;;17.54;100.00;101805.03;7380751;19;20066;-78
2022/08/22 01:47:15;;;;;;;12.85;4.53;;;;;;;17.53;100.00;101806.81;7380667;19;20010;-77
2022/08/22 01:49:48;;;;;;;10.98;4.80;;;;;;;17.55;100.00;101809.47;7381242;19;20007;-77
2022/08/22 01:52:38;;;;;;;16.40;5.57;;;;;;;17.52;100.00;101809.47;7379781;19;20014;-77
2022/08/22 01:55:12;;;;;;;13.27;5.28;;;;;;;17.52;100.00;101805.03;7382766;19;20295;-76
2022/08/22 01:57:54;;;;;;;10.75;5.65;;;;;;;17.50;100.00;101805.91;7379598;19;20019;-76
2022/08/22 02:00:29;;;;;;;15.85;5.60;;;;;;;17.44;100.00;101804.16;7379699;19;20574;-76
2022/08/22 02:03:19;;;;;;;14.90;5.88;;;;;;;17.44;100.00;101803.25;7380271;19;20535;-76
2022/08/22 02:05:56;;;;;;;16.75;6.10;;;;;;;17.45;100.00;101797.06;7378968;19;20010;-76
2022/08/22 02:08:39;;;;;;;12.40;5.28;;;;;;;17.45;100.00;101799.72;7379504;19;20007;-77
2022/08/22 02:11:13;;;;;;;15.20;5.97;;;;;;;17.46;100.00;101798.84;7379316;19;20015;-76
2022/08/22 02:14:00;;;;;;;14.40;6.10;;;;;;;17.40;100.00;101798.84;7381701;19;20014;-77
2022/08/22 02:16:42;;;;;;;14.43;6.55;;;;;;;17.37;100.00;101793.53;7379926;19;20426;-77
2022/08/22 02:19:25;;;;;;;14.23;6.40;;;;;;;17.36;100.00;101800.59;7382525;19;20015;-77
2022/08/22 02:21:59;;;;;;;12.05;6.47;;;;;;;17.33;100.00;101798.84;7385767;19;20011;-76
2022/08/22 02:24:49;;;;;;;15.25;7.47;;;;;;;17.31;100.00;101795.31;7388421;19;20422;-77
2022/08/22 02:27:34;;;;;;;15.30;6.95;;;;;;;17.28;100.00;101787.34;7391302;19;20190;-76
2022/08/22 02:30:11;;;;;;;11.52;5.88;;;;;;;17.29;100.00;101786.47;7392556;19;20168;-76
2022/08/22 02:32:53;;;;;;;13.13;5.35;;;;;;;17.28;100.00;101784.69;7389524;19;20082;-77
2022/08/22 02:35:34;;;;;;;15.20;6.65;;;;;;;17.26;100.00;101781.16;7381640;19;20018;-78
2022/08/22 02:38:15;;;;;;;14.13;6.43;;;;;;;17.25;100.00;101787.34;7379706;19;20101;-77
2022/08/22 02:41:02;;;;;;;16.73;6.15;;;;;;;17.25;100.00;101790.00;7379378;19;20010;-78
2022/08/22 02:43:41;;;;;;;14.65;5.95;;;;;;;17.20;100.00;101796.16;7376382;19;20043;-79
2022/08/22 02:46:24;;;;;;;12.95;6.13;;;;;;;17.20;100.00;101796.16;7380250;19;20377;-77
2022/08/22 02:49:06;;;;;;;15.00;6.00;;;;;;;17.21;100.00;101793.53;7380436;19;20017;-77
2022/08/22 02:51:50;;;;;;;12.70;5.80;;;;;;;17.20;100.00;101788.22;7378447;19;20040;-78
2022/08/22 02:54:27;;;;;;;13.40;6.32;;;;;;;17.19;100.00;101786.44;7375198;19;20497;-77
2022/08/22 02:57:07;;;;;;;11.35;5.90;;;;;;;17.20;100.00;101785.56;7377278;19;20340;-77
2022/08/22 03:00:09;;;;;;;14.50;6.30;;;;;;;17.15;100.00;101780.25;7381738;19;20408;-77
2022/08/22 03:03:06;;;;;;;17.52;6.20;;;;;;;17.13;100.00;101773.19;7375047;19;20442;-77
2022/08/22 03:05:51;;;;;;;19.73;6.85;;;;;;;17.13;100.00;101774.06;7377232;19;20140;-77
2022/08/22 03:08:27;;;;;;;15.93;6.43;;;;;;;17.13;100.00;101775.84;7380462;19;20475;-76
2022/08/22 03:11:17;;;;;;;17.30;6.30;;;;;;;17.17;100.00;101770.53;7376736;19;21955;-77
2022/08/22 03:14:06;;;;;;;16.65;6.25;;;;;;;17.14;100.00;101764.34;7375901;19;20480;-77
2022/08/22 03:16:46;;;;;;;15.70;6.13;;;;;;;17.14;100.00;101759.94;7376772;19;20010;-77
2022/08/22 03:19:21;;;;;;;13.15;6.07;;;;;;;17.13;100.00;101752.88;7377375;19;20294;-77
2022/08/22 03:22:07;;;;;;;13.98;6.00;;;;;;;17.12;100.00;101758.16;7378007;19;20010;-77
2022/08/22 03:24:48;;;;;;;16.45;6.30;;;;;;;17.10;100.00;101747.56;7379431;19;20006;-79
2022/08/22 03:27:24;;;;;;;16.23;6.30;;;;;;;17.05;100.00;101741.38;7386938;19;20771;-79
2022/08/22 03:30:11;;;;;;;14.40;6.20;;;;;;;17.04;100.00;101741.38;7388013;19;20002;-75
2022/08/22 03:33:14;;;;;;;13.10;5.90;;;;;;;16.98;100.00;101740.47;7381993;19;20010;-74
2022/08/22 03:36:02;;;;;;;19.65;6.43;;;;;;;16.88;100.00;101736.06;7383958;19;20007;-75
2022/08/22 03:38:45;;;;;;;13.32;5.45;;;;;;;16.85;100.00;101735.16;7381783;19;20491;-75
2022/08/22 03:41:34;;;;;;;13.52;6.15;;;;;;;16.78;100.00;101744.88;7380795;19;20018;-75
2022/08/22 03:44:38;;;;;;;14.43;5.93;;;;;;;16.73;100.00;101738.66;7382056;19;20003;-75
2022/08/22 03:47:39;;;;;;;13.27;6.13;;;;;;;16.67;100.00;101743.94;7380436;19;20082;-75
2022/08/22 03:50:35;;;;;;;14.18;6.22;;;;;;;16.65;100.00;101743.94;7385655;19;20466;-76
2022/08/22 03:53:48;;;;;;;13.75;6.07;;;;;;;16.62;100.00;101743.06;7378405;19;20011;-76
2022/08/22 03:56:57;;;;;;;13.18;6.43;;;;;;;16.57;100.00;101740.41;7384985;19;20011;-79
2022/08/22 04:00:09;;;;;;;14.13;7.03;;;;;;;16.52;100.00;101743.91;7389027;19;20582;-76
2022/08/22 04:03:24;;;;;;;11.70;5.30;;;;;;;16.51;100.00;101744.78;7386594;19;20010;-76
2022/08/22 04:06:27;;;;;;;13.50;5.53;;;;;;;16.44;100.00;101749.19;7384566;19;20032;-75
2022/08/22 04:09:29;;;;;;;12.60;6.53;;;;;;;16.41;100.00;101753.56;7383331;19;20105;-74
2022/08/22 04:12:46;;;;;;;12.57;5.45;;;;;;;16.38;100.00;101753.56;7385094;19;20471;-73
2022/08/22 04:16:05;;;;;;;14.70;6.00;;;;;;;16.33;100.00;101756.19;7384004;19;20014;-76
2022/08/22 04:18:49;;;;;;;11.52;5.20;;;;;;;16.27;100.00;101756.16;7381699;19;20027;-79
2022/08/22 04:21:49;;;;;;;12.60;5.68;;;;;;;16.25;100.00;101758.81;7382806;19;20011;-77
2022/08/22 04:24:39;;;;;;;13.68;5.63;;;;;;;16.22;100.00;101763.19;7382514;19;20517;-79
2022/08/22 04:27:17;;;;;;;15.23;5.53;;;;;;;16.18;100.00;101761.41;7382472;19;20028;-77
2022/08/22 04:29:53;;;;;;;13.80;5.55;;;;;;;16.16;100.00;101757.88;7381925;19;20037;-77
2022/08/22 04:32:35;;;;;;;12.18;4.72;;;;;;;16.11;100.00;101770.19;7380752;19;20040;-75
2022/08/22 04:35:09;;;;;;;12.18;5.13;;;;;;;16.09;100.00;101777.25;7381293;19;20003;-77
2022/08/22 04:37:53;;;;;;;10.88;5.30;;;;;;;16.01;100.00;101764.84;7379169;19;20014;-77
2022/08/22 04:40:28;;;;;;;14.95;6.07;;;;;;;15.99;100.00;101768.38;7381515;19;20019;-77
2022/08/22 04:43:04;;;;;;;10.32;5.10;;;;;;;15.97;100.00;101768.34;7381841;19;20015;-77
2022/08/22 04:45:39;;;;;;;14.75;5.70;;;;;;;15.96;100.00;101766.59;7378434;19;20043;-77
2022/08/22 04:48:15;;;;;;;11.65;5.75;;;;;;;15.98;100.00;101769.25;7382127;19;20006;-77
2022/08/22 04:50:51;;;;;;;14.57;5.80;;;;;;;15.98;100.00;101770.13;7380056;19;20087;-77
2022/08/22 04:53:50;;;;;;;11.98;6.15;;;;;;;15.98;100.00;101769.25;7378583;19;20011;-77
2022/08/22 04:56:29;;;;;;;14.10;5.25;;;;;;;15.98;100.00;101782.47;7379324;19;20077;-77
2022/08/22 04:59:04;;;;;;;12.77;5.38;;;;;;;15.98;100.00;101785.13;7382654;19;20014;-77
2022/08/22 05:01:41;;;;;;;13.52;5.90;;;;;;;15.99;100.00;101781.59;7381662;19;20023;-77
2022/08/22 05:04:15;;;;;;;12.90;5.00;;;;;;;15.99;100.00;101784.25;7384959;19;20017;-77
2022/08/22 05:06:52;;;;;;;17.88;8.00;;;;;;;16.03;100.00;101786.03;7382697;19;20010;-77
2022/08/22 05:09:31;;;;;;;17.10;6.90;;;;;;;16.08;100.00;101781.66;7383585;19;20014;-77
2022/08/22 05:12:13;;;;;;;14.07;6.65;;;;;;;16.09;100.00;101788.72;7383597;19;20015;-78
2022/08/22 05:14:46;;;;;;;16.55;6.53;;;;;;;16.11;100.00;101781.66;7381960;19;20010;-78
2022/08/22 05:17:21;;;;;;;12.73;5.32;;;;;;;16.12;100.00;101791.38;7382484;19;20484;-78
2022/08/22 05:19:55;;;;;;;15.88;6.50;;;;;;;16.13;100.00;101795.78;7385620;19;20027;-78
2022/08/22 05:22:35;;;;;;;14.40;6.57;;;;;;;16.14;100.00;101797.56;7386279;19;20039;-78
2022/08/22 05:25:11;;;;;;;12.77;6.03;;;;;;;16.15;100.00;101798.44;7382986;19;20018;-77
2022/08/22 05:27:46;;;;;;;10.45;5.90;;;;;;;16.14;100.00;101791.38;7241424;19;2733328;-77
2022/08/22 05:30:23;;;;;;;15.75;7.18;;;;;;;16.14;100.00;101797.56;7388176;19;20002;-78
2022/08/22 05:32:59;;;;;;;13.35;5.80;;;;;;;16.14;100.00;101796.69;7387369;19;20006;-77
2022/08/22 05:35:42;;;;;;;14.95;6.55;;;;;;;16.14;100.00;101794.91;7388124;19;20046;-78
2022/08/22 05:38:22;;;;;;;13.98;5.55;;;;;;;16.13;100.00;101794.91;7389257;19;20514;-76
2022/08/22 05:40:58;;;;;;;15.52;5.68;;;;;;;16.14;100.00;101797.56;7391175;19;20412;-77
2022/08/22 05:43:30;;;;;;;11.57;5.38;;;;;;;16.16;100.00;101800.22;7390122;19;20018;-77
2022/08/22 05:46:01;;;;;;;15.43;6.63;;;;;;;16.19;100.00;101789.66;7391989;19;20039;-77
2022/08/22 05:48:42;;;;;;;11.77;5.73;;;;;;;16.24;100.00;101793.22;7390640;19;20011;-78
2022/08/22 05:51:20;;;;;;;16.05;6.15;;;;;;;16.34;100.00;101790.63;7387912;19;20018;-78
2022/08/22 05:53:54;;;;;;;14.38;6.63;;;;;;;16.49;100.00;101792.44;7384564;19;20023;-78
2022/08/22 05:56:46;;;;;;;12.05;6.03;;;;;;;16.76;100.00;101793.41;7387154;19;20011;-74
2022/08/22 06:03:01;;;;;;;20.95;7.10;;;;;;;16.99;100.00;101807.63;7379674;19;20022;-75
2022/08/22 06:05:39;;;;;;;16.35;6.68;;;;;;;17.17;100.00;101806.78;7375369;19;20368;-74
2022/08/22 06:08:19;;;;;;;14.93;7.53;;;;;;;17.44;100.00;101805.91;7375745;19;20043;-75
2022/08/22 06:10:54;;;;;;;13.93;6.95;;;;;;;17.56;100.00;101813.88;7379901;19;20420;-74
2022/08/22 06:13:31;;;;;;;13.45;6.78;;;;;;;17.83;100.00;101811.22;7378103;19;20019;-75
2022/08/22 06:16:11;;;;;;;18.55;8.25;;;;;;;18.06;100.00;101812.94;7376579;19;20015;-74
2022/08/22 06:18:44;;;;;;;16.25;6.80;;;;;;;18.21;100.00;101816.44;7380182;19;20122;-74
2022/08/22 06:21:22;;;;;;;15.23;7.43;;;;;;;18.30;100.00;101815.53;7376688;19;20011;-74
2022/08/22 06:23:56;;;;;;;13.23;6.13;;;;;;;18.52;100.00;101809.25;7380642;19;20505;-74
2022/08/22 06:26:30;;;;;;;18.48;6.82;;;;;;;18.59;100.00;101810.13;7376398;19;20508;-74
2022/08/22 06:29:04;;;;;;;14.65;6.40;;;;;;;18.55;100.00;101809.25;7379337;19;20043;-74
2022/08/22 06:31:44;;;;;;;16.23;7.35;;;;;;;18.48;100.00;101804.84;7373766;19;20011;-74
2022/08/22 06:34:18;;;;;;;16.92;7.85;;;;;;;18.25;100.00;101807.59;7378529;19;20031;-74
2022/08/22 06:36:51;;;;;;;12.30;6.53;;;;;;;18.23;100.00;101811.13;7381276;19;20031;-74
2022/08/22 06:39:25;;;;;;;18.20;6.72;;;;;;;18.18;100.00;101810.25;7371125;19;20031;-74
2022/08/22 06:42:05;;;;;;;16.25;7.43;;;;;;;18.12;100.00;101813.81;7374119;19;20453;-74
2022/08/22 06:44:41;;;;;;;14.30;7.20;;;;;;;18.08;100.00;101805.88;7373352;19;20534;-74
2022/08/22 06:47:16;;;;;;;15.13;6.78;;;;;;;18.46;100.00;101819.03;7372674;19;20471;-74
2022/08/22 06:49:47;;;;;;;17.33;6.57;;;;;;;18.87;100.00;101801.13;7375793;19;20010;-74
2022/08/22 06:52:22;;;;;;;18.27;7.28;;;;;;;19.08;100.00;101805.44;7373357;19;20471;-74
2022/08/22 06:54:59;;;;;;;16.90;7.05;;;;;;;19.25;100.00;101800.00;7371686;19;20017;-74
2022/08/22 06:57:34;;;;;;;13.05;6.13;;;;;;;19.60;100.00;101802.41;7371987;19;20014;-74
2022/08/22 07:00:12;;;;;;;17.33;7.00;;;;;;;19.55;100.00;101786.50;7369931;19;20018;-73
2022/08/22 07:02:45;;;;;;;15.82;6.97;;;;;;;19.84;100.00;101794.16;7372836;19;20611;-72
2022/08/22 07:05:17;;;;;;;;;;;;;;;20.22;100.00;101780.44;7372560;19;20021;-72
2022/08/22 07:07:48;;;;;;;13.50;5.85;;;;;;;20.39;100.00;101776.75;7369225;19;19911;-72
2022/08/22 07:10:20;;;;;;;15.18;6.70;;;;;;;20.61;100.00;101778.22;7371232;19;20007;-72
2022/08/22 07:13:03;;;;;;;16.52;7.00;;;;;;;20.70;100.00;101771.91;7367906;19;20015;-72
2022/08/22 07:15:45;;;;;;;14.73;7.15;;;;;;;20.73;100.00;101783.41;7371300;19;20010;-71
2022/08/22 07:18:19;;;;;;;15.77;6.65;;;;;;;20.84;100.00;101777.88;7372576;19;20013;-78
2022/08/22 07:20:51;;;;;;;19.08;7.22;;;;;;;20.92;100.00;101776.00;7371937;19;20011;-76
2022/08/22 07:23:34;;;;;;;16.17;6.97;;;;;;;21.03;100.00;101768.72;7376570;19;20024;-73
2022/08/22 07:26:25;;;;;;;17.80;7.93;;;;;;;20.98;100.00;101767.00;7372577;19;20034;-72
2022/08/22 07:29:03;;;;;;;13.45;6.50;;;;;;;21.08;100.00;101769.53;7371734;19;20010;-78
2022/08/22 07:31:50;;;;;;;15.05;7.32;;;;;;;21.17;100.00;101763.16;7381556;19;20019;-78
2022/08/22 07:34:37;;;;;;;16.25;6.57;;;;;;;21.61;100.00;101765.13;7381787;19;20010;-78
2022/08/22 07:37:14;;;;;;;15.80;6.78;;;;;;;21.75;100.00;101757.75;7387126;19;20022;-79
2022/08/22 07:39:56;;;;;;;14.73;6.03;;;;;;;21.87;100.00;101764.63;7378649;19;20309;-72
2022/08/22 07:42:45;;;;;;;14.05;6.47;;;;;;;22.06;100.00;101760.72;7375815;19;20023;-72
2022/08/22 07:45:19;;;;;;;13.35;6.43;;;;;;;22.04;100.00;101764.34;7376037;19;20019;-72
2022/08/22 07:48:09;;;;;;;17.05;6.43;;;;;;;22.22;100.00;101755.94;7377082;19;20011;-72
2022/08/22 07:50:49;;;;;;;17.73;6.22;;;;;;;22.29;100.00;101762.94;7377282;19;20017;-77
2022/08/22 07:53:25;;;;;;;13.52;6.53;;;;;;;22.42;100.00;101768.91;7373815;19;20010;-77
2022/08/22 07:55:56;;;;;;;14.05;5.95;;;;;;;22.67;100.00;101766.59;7377372;19;20015;-78
2022/08/22 07:58:30;;;;;;;15.90;6.63;;;;;;;22.83;100.00;101770.72;7378475;19;20006;-77
2022/08/22 08:01:11;;;;;;;13.02;6.00;;;;;;;23.11;100.00;101763.78;7377653;19;20114;-77
2022/08/22 08:03:49;;;;;;;15.93;6.28;;;;;;;23.05;100.00;101763.91;7378557;19;20463;-78
2022/08/22 08:06:19;;;;;;;17.38;6.78;;;;;;;23.11;100.00;101758.41;7377939;19;20019;-77
2022/08/22 08:08:49;;;;;;;13.40;6.32;;;;;;;23.20;100.00;101764.47;7377311;19;20093;-77
2022/08/22 08:11:24;;;;;;;19.25;6.72;;;;;;;23.42;100.00;101763.91;7380002;19;20010;-78
2022/08/22 08:13:59;;;;;;;13.52;6.50;;;;;;;23.58;100.00;101764.41;7385999;19;20447;-77
2022/08/22 08:16:44;;;;;;;14.80;7.10;;;;;;;23.67;100.00;101764.19;7382570;19;20474;-77
2022/08/22 08:19:20;;;;;;;10.77;5.70;;;;;;;23.51;100.00;101756.56;7384951;19;20771;-78
2022/08/22 08:21:53;;;;;;;13.65;6.15;;;;;;;23.64;100.00;101756.22;7387184;19;20027;-77
2022/08/22 08:24:27;;;;;;;15.25;6.35;;;;;;;23.89;100.00;101753.78;7381642;19;20023;-79
2022/08/22 08:29:57;;;;;;;11.98;6.18;;;;;;;24.25;99.23;101759.84;7385054;19;20019;-78
2022/08/22 08:32:34;;;;;;;15.50;6.25;;;;;;;24.47;100.00;101756.59;7384713;19;20017;-76
2022/08/22 08:35:12;;;;;;;12.80;6.47;;;;;;;24.77;97.95;101755.66;7383990;19;20790;-77
2022/08/22 08:37:47;;;;;;;12.85;6.07;;;;;;;24.76;97.73;101760.13;7384982;19;20010;-77
2022/08/22 08:40:44;;;;;;;11.30;5.53;;;;;;;24.37;95.45;101751.50;7385680;19;20014;-72
2022/08/22 08:43:33;;;;;;;14.15;5.85;;;;;;;24.51;94.89;101753.75;7381283;19;20006;-72
2022/08/22 08:46:29;;;;;;;14.38;5.45;;;;;;;24.61;90.97;101751.69;7382110;19;20555;-74
2022/08/22 08:49:28;;;;;;;14.35;5.45;;;;;;;24.87;93.18;101746.38;7380962;19;20023;-72
2022/08/22 08:52:33;;;;;;;12.65;5.22;;;;;;;24.31;89.33;101740.06;7380737;19;20014;-72
2022/08/22 08:55:19;;;;;;;14.90;5.50;;;;;;;24.77;88.90;101747.59;7381442;19;20534;-72
2022/08/22 08:58:21;;;;;;;13.25;5.80;;;;;;;24.81;89.60;101738.53;7381728;19;20014;-72
2022/08/22 09:01:12;;;;;;;12.27;5.50;;;;;;;24.99;89.00;101737.94;7383101;19;20043;-75
2022/08/22 09:04:15;;;;;;;14.18;5.25;;;;;;;25.14;83.57;101744.63;7380052;19;20010;-73
2022/08/22 09:07:06;;;;;;;11.40;5.65;;;;;;;25.05;85.19;101743.13;7378495;19;20006;-74
2022/08/22 09:10:03;;;;;;;11.73;4.68;;;;;;;24.98;84.36;101748.72;7381310;19;20011;-77
2022/08/22 09:12:51;;;;;;;12.48;4.50;;;;;;;25.28;84.09;101736.13;7385993;19;20025;-78
2022/08/22 09:15:56;;;;;;;11.70;4.57;;;;;;;25.32;79.56;101735.06;7386924;19;20007;-78
2022/08/22 09:19:03;;;;;;;14.55;5.72;;;;;;;25.19;79.98;101742.66;7386340;19;20017;-78
2022/08/22 09:22:11;;;;;;;10.73;4.20;;;;;;;25.65;78.56;101731.25;7387865;19;20011;-79
2022/08/22 09:25:34;;;;;;;11.95;4.53;;;;;;;25.73;75.82;101739.94;7383643;19;20491;-79
2022/08/22 09:28:18;;;;;;;9.70;3.90;;;;;;;25.66;76.53;101733.03;7385720;19;20406;-72
2022/08/22 09:31:27;;;;;;;13.32;4.53;;;;;;;25.42;77.35;101733.84;7392310;19;20015;-77
2022/08/22 09:34:24;;;;;;;15.27;5.22;;;;;;;25.53;74.52;101726.28;7396777;19;20017;-76
2022/08/22 09:37:15;;;;;;;13.25;4.30;;;;;;;25.51;77.87;101725.47;7390522;19;20011;-79
2022/08/22 09:39:54;;;;;;;9.82;4.28;;;;;;;26.08;75.00;101719.81;7394488;19;20014;-78
2022/08/22 09:42:37;;;;;;;12.20;4.95;;;;;;;25.92;72.60;101723.16;7398962;19;20339;-78
2022/08/22 09:45:48;;;;;;;8.40;3.78;;;;;;;25.98;66.98;101717.56;7394214;19;20003;-78
2022/08/22 09:48:53;;;;;;;7.50;3.80;;;;;;;26.22;67.39;101711.22;7390015;19;20014;-77
2022/08/22 09:51:37;;;;;;;11.43;4.53;;;;;;;25.98;70.16;101712.16;7389195;19;20023;-77
2022/08/22 09:54:24;;;;;;;12.50;5.00;;;;;;;26.09;69.96;101709.94;7385227;19;20024;-77
2022/08/22 09:57:21;;;;;;;10.57;4.30;;;;;;;26.12;68.35;101709.81;7382877;19;20007;-73
2022/08/22 10:00:25;;;;;;;11.27;4.40;;;;;;;26.28;68.17;101702.91;7376432;19;20545;-76
2022/08/22 10:03:06;;;;;;;10.95;4.20;;;;;;;26.54;67.01;101701.06;7376737;19;20097;-75
2022/08/22 10:05:46;;;;;;;8.82;4.10;;;;;;;26.57;67.33;101696.44;7377211;19;20014;-75
2022/08/22 10:08:35;;;;;;;9.57;4.15;;;;;;;26.65;66.61;101693.44;7375081;19;20010;-75
2022/08/22 10:11:19;;;;;;;10.73;3.97;;;;;;;26.79;65.00;101695.56;7379178;19;20044;-75
2022/08/22 10:14:01;;;;;;;8.70;4.00;;;;;;;27.20;62.80;101697.44;7376201;19;20039;-75
2022/08/22 10:17:05;;;;;;;7.53;3.28;;;;;;;26.47;66.19;101692.38;7377984;19;20432;-74
2022/08/22 10:19:44;;;;;;;10.32;3.42;;;;;;;26.58;64.17;101703.56;7379953;19;20028;-74
2022/08/22 10:22:38;;;;;;;9.63;3.97;;;;;;;26.63;62.79;101698.00;7380017;19;20487;-74
2022/08/22 10:25:21;;;;;;;;;;;;;;;26.77;61.98;101692.06;7380214;19;20011;-73
2022/08/22 10:27:57;;;;;;;9.97;3.63;;;;;;;26.74;61.40;101695.78;7384245;19;20336;-78
2022/08/22 10:30:44;;;;;;;8.90;3.53;;;;;;;27.01;61.74;101688.41;7379942;19;20256;-74
2022/08/22 10:33:27;;;;;;;8.93;3.38;;;;;;;27.10;61.42;101703.28;7379702;19;20007;-74
2022/08/22 10:36:04;;;;;;;8.05;3.85;;;;;;;26.59;62.93;101693.69;7379070;19;20056;-78
2022/08/22 10:38:42;;;;;;;8.40;3.67;;;;;;;26.98;61.88;101684.03;7386143;19;20089;-79
2022/08/22 10:41:27;;;;;;;11.57;4.22;;;;;;;26.87;61.98;101693.44;7385755;19;20462;-79
2022/08/22 10:44:04;;;;;;;10.55;3.88;;;;;;;27.17;62.29;101692.19;7384126;19;20010;-78
2022/08/22 10:46:43;;;;;;;8.38;3.50;;;;;;;27.42;60.32;101686.63;7383915;19;20018;-79
2022/08/22 10:49:25;;;;;;;10.38;3.55;;;;;;;27.25;59.61;101697.25;7380751;19;20103;-74
2022/08/22 10:52:06;;;;;;;9.77;3.60;;;;;;;26.51;61.32;101695.81;7378602;19;20025;-74
2022/08/22 10:54:50;;;;;;;9.70;3.80;;;;;;;26.12;63.01;101696.38;7379268;19;20120;-78
2022/08/22 10:57:40;;;;;;;8.05;3.85;;;;;;;26.81;62.30;101693.69;7372216;19;20379;-73
2022/08/22 11:00:18;;;;;;;10.60;3.42;;;;;;;27.37;60.38;101699.41;7373497;19;20044;-73
2022/08/22 11:02:59;;;;;;;8.75;3.40;;;;;;;27.33;60.68;101695.97;7374746;19;20140;-74
2022/08/22 11:05:38;;;;;;;10.18;4.43;;;;;;;27.80;58.04;101700.25;7375196;19;20023;-78
2022/08/22 11:08:23;;;;;;;9.85;4.22;;;;;;;27.04;60.35;101696.31;7371963;19;20039;-75
2022/08/22 11:11:06;;;;;;;14.50;4.40;;;;;;;26.71;61.73;101694.06;7371674;19;20006;-78
2022/08/22 11:13:44;;;;;;;10.70;3.90;;;;;;;27.24;60.71;101698.19;7371517;19;20453;-78
2022/08/22 11:16:30;;;;;;;10.23;3.70;;;;;;;27.26;60.00;101699.88;7378871;19;20417;-77
2022/08/22 11:19:25;;;;;;;10.40;3.53;;;;;;;27.61;57.53;101698.38;7372575;19;20025;-78
2022/08/22 11:22:11;;;;;;;7.75;3.80;;;;;;;27.80;55.07;101689.47;7375778;19;20078;-80
2022/08/22 11:25:12;;;;;;;12.68;3.92;;;;;;;28.04;55.32;101696.44;7372157;19;20015;-80
2022/08/22 11:27:50;;;;;;;13.07;3.90;;;;;;;27.58;56.13;101695.78;7375299;19;20026;-78
2022/08/22 11:30:26;;;;;;;8.95;3.75;;;;;;;27.96;55.97;101690.53;7374580;19;20373;-79
2022/08/22 11:33:14;;;;;;;11.38;4.00;;;;;;;27.89;56.39;101686.34;7375066;19;20023;-79
2022/08/22 11:35:50;;;;;;;8.65;4.05;;;;;;;28.16;53.64;101684.19;7376274;19;20014;-80
2022/08/22 11:38:30;;;;;;;8.77;3.83;;;;;;;28.22;53.64;101676.72;7375970;19;20013;-79
2022/08/22 11:41:06;;;;;;;9.90;3.83;;;;;;;27.84;55.44;101685.69;7375873;19;20014;-78
2022/08/22 11:43:50;;;;;;;11.55;3.92;;;;;;;28.17;53.61;101680.53;7375787;19;20098;-80
2022/08/22 11:46:29;;;;;;;11.52;4.20;;;;;;;28.27;54.86;101682.75;7377850;19;20027;-78
2022/08/22 11:49:27;;;;;;;12.85;4.07;;;;;;;28.12;56.87;101683.44;7382741;19;20015;-78
2022/08/22 11:52:13;;;;;;;8.50;3.58;;;;;;;28.42;55.53;101686.56;7376622;19;20014;-75
2022/08/22 11:55:06;;;;;;;8.25;3.75;;;;;;;27.85;56.01;101684.75;7380849;19;20439;-74
2022/08/22 11:57:41;;;;;;;11.73;4.80;;;;;;;27.35;58.01;101682.44;7380432;19;20010;-74
2022/08/22 12:00:26;;;;;;;9.98;4.03;;;;;;;27.84;58.58;101674.91;7382204;19;20432;-77
2022/08/22 12:03:14;;;;;;;10.20;4.22;;;;;;;27.36;58.38;101674.28;7376780;19;20023;-76
2022/08/22 12:05:48;;;;;;;8.80;4.13;;;;;;;28.00;57.05;101663.34;7377756;19;20126;-76
2022/08/22 12:08:27;;;;;;;9.82;4.10;;;;;;;27.85;54.52;101679.34;7370980;19;20625;-76
2022/08/22 12:11:07;;;;;;;8.65;3.80;;;;;;;28.03;56.07;101678.50;7377449;19;20003;-74
2022/08/22 12:13:50;;;;;;;7.28;3.60;;;;;;;28.03;55.37;101683.91;7380555;19;20046;-73
2022/08/22 12:16:42;;;;;;;11.07;4.47;;;;;;;28.40;54.61;101671.38;7378068;19;20015;-75
2022/08/22 12:19:23;;;;;;;12.18;4.53;;;;;;;28.24;54.46;101668.53;7374877;19;20010;-74
2022/08/22 12:22:30;;;;;;;11.35;4.03;;;;;;;28.18;53.60;101661.59;7374364;19;20010;-73
2022/08/22 12:25:11;;;;;;;23.63;5.18;;;;;;;28.85;55.07;101655.69;7375122;19;20507;-73
2022/08/22 12:27:59;;;;;;;10.73;4.18;;;;;;;28.18;54.15;101660.72;7380703;19;20015;-72
2022/08/22 12:30:38;;;;;;;9.13;4.13;;;;;;;28.40;54.10;101655.19;7376656;19;20011;-72
2022/08/22 12:33:27;;;;;;;11.32;4.30;;;;;;;28.49;54.72;101663.72;7379500;19;20021;-73
2022/08/22 12:36:17;;;;;;;11.23;4.55;;;;;;;28.68;54.33;101649.34;7378270;19;20019;-72
2022/08/22 12:39:02;;;;;;;18.35;4.95;;;;;;;28.81;54.56;101648.66;7376790;19;20011;-73
2022/08/22 12:42:07;;;;;;;8.95;3.72;;;;;;;29.04;53.05;101635.84;7379362;19;20015;-73